Detalii statie VALKAPA [00001D0A]

Toti senzorii

Date Temperatura solului [C]Precipitatii [mm]Voltaj baterie [mV]Leaf Wetness [Min]HC Air temperature [C]HC Relative humidity [%]Punctul de roua [C]
medieminmaxsumaultimatimpmedieminmaxmediemediemin
2017-12-10 22:00:00 0 6844 -0.49 -0.6 -0.37 79.17 -3.6 -3.8
2017-12-10 23:00:00 0 6834 -0.33 -0.57 -0.07 78.02 -3.6 -3.8
2017-12-11 00:00:00 0 6816 0.18 -0.07 0.36 73.66 -4 -4.3
2017-12-11 01:00:00 0 6796 0.78 0.37 0.91 71.66 -3.7 -4.2
2017-12-11 02:00:00 0 6796 1.03 0.83 1.21 73.97 -3.1 -3.4
2017-12-11 03:00:00 0 6786 1.29 1.18 1.49 78.3 -2.1 -2.8
2017-12-11 04:00:00 0 6766 0.62 0.44 1.1 98.99 0.4 -0.1
2017-12-11 05:00:00 0 6756 1.08 0.81 1.24 100 1 0.8
2017-12-11 06:00:00 0.4 6756 1.4 1.19 1.55 100 1.3 1.1
2017-12-11 07:00:00 0.2 6748 1.49 1.37 1.58 100 1.4 1.3
2017-12-11 08:00:00 1 6756 1.85 1.48 2.32 100 1.8 1.4
2017-12-11 09:00:00 0.6 6748 2.72 2.27 3.19 100 2.6 2.2
2017-12-11 10:00:00 0.2 6766 3.33 3.07 3.66 100 3.2 3
2017-12-11 11:00:00 0.4 6816 4.83 3.75 5.48 97.11 4.3 3.7
2017-12-11 12:00:00 0 6962 6.94 5.62 8.04 86.95 4.8 4.6
2017-12-11 13:00:00 0 6982 8.59 8.08 8.85 80.02 5.2 4.9
2017-12-11 14:00:00 0 6962 8.95 8.66 9.23 76.96 5 4.9
2017-12-11 15:00:00 0 6922 9.16 9.04 9.37 75.39 4.9 4.5
2017-12-11 16:00:00 0 6864 9.34 9.29 9.4 71.14 4.2 4
2017-12-11 17:00:00 0 6834 9.42 9.16 9.65 68.66 3.8 3.6
2017-12-11 18:00:00 0 6806 9.5 9.38 9.66 68.89 3.9 3.7
2017-12-11 19:00:00 0 6796 9.49 9.24 9.68 69.58 4 3.8
2017-12-11 20:00:00 0 6786 9.4 9.19 9.55 69.45 3.9 3.8
2017-12-11 21:00:00 0 6776 9.18 9.01 9.27 69.92 3.8 3.6
2017-12-11 22:00:00 0 6766 9.47 9.31 9.67 68.58 3.8 3.8
2017-12-11 23:00:00 0 6756 9.36 9.16 9.5 68.92 3.8 3.7
2017-12-12 00:00:00 0 6766 9.41 9.26 9.6 68.41 3.7 3.6
2017-12-12 01:00:00 0 6756 9.27 9.08 9.5 69.77 3.9 3.8
2017-12-12 02:00:00 0 6756 9.27 9.04 9.52 70.04 3.9 3.8
2017-12-12 03:00:00 0 6756 8.95 8.62 9.13 70.86 3.7 3.6
2017-12-12 04:00:00 0 6756 8.97 8.67 9.33 70.25 3.6 3.6
2017-12-12 05:00:00 0 6756 9.02 8.59 9.37 70.27 3.7 3.6
2017-12-12 06:00:00 0 6748 9.42 9.15 9.68 69.81 4 3.8
2017-12-12 07:00:00 0 6756 9.29 8.78 10.23 72.35 4.4 4.3
2017-12-12 08:00:00 0 6756 10.29 9.76 10.55 69.63 4.8 4.7
2017-12-12 09:00:00 0 6756 11.1 10.43 11.56 66.88 5 4.9
2017-12-12 10:00:00 0 6786 11.68 11.34 12.29 66.67 5.5 5.3
2017-12-12 11:00:00 0 6834 12.59 12.24 13.21 65.03 6 5.8
2017-12-12 12:00:00 0 6914 13.66 13.19 14.11 62.33 6.4 6.1
2017-12-12 13:00:00 0 6922 14.56 14.16 14.83 61.85 7.1 6.8
2017-12-12 14:00:00 0 6932 15.18 14.88 15.58 59.15 7.1 6.8
2017-12-12 15:00:00 0 6914 15.22 14.8 15.53 58.96 7 6.8
2017-12-12 16:00:00 0 6854 14.68 14.29 14.92 61.76 7.2 6.9
2017-12-12 17:00:00 0 6826 13.88 13.43 14.2 66.1 7.5 7.4
2017-12-12 18:00:00 0 6806 13.44 13.12 13.87 68.4 7.6 7.3
2017-12-12 19:00:00 0 6796 13.49 13.11 13.81 66.4 7.2 6.8
2017-12-12 20:00:00 0 6786 13.06 12.79 13.31 67.52 7 6.8
2017-12-12 21:00:00 0 6776 12.81 12.43 13.14 68.25 6.9 6.7